Time;durP1;ratioP1;P1;durP2;ratioP2;P2;SDS_P1;SDS_P2;PMS_P1;PMS_P2;Temp;Humidity;BMP_temperature;BMP_pressure;BME280_temperature;BME280_humidity;BME280_pressure;Samples;Min_cycle;Max_cycle;Signal;HPM_P1;HPM_P2
2020/05/05 00:02:16;;;;;;;6.6;5.2;;;;;;;;;;;;;
2020/05/05 00:07:05;;;;;;;6.1;5.2;;;;;;;;;;;;;
2020/05/05 00:09:29;;;;;;;5.5;4.8;;;;;;;;;;;;;
2020/05/05 00:11:51;;;;;;;5.8;4.7;;;;;;;;;;;;;
2020/05/05 00:14:15;;;;;;;6.5;4.6;;;;;;;;;;;;;
2020/05/05 00:16:40;;;;;;;6.7;4.8;;;;;;;;;;;;;
2020/05/05 00:19:08;;;;;;;5;4.5;;;;;;;;;;;;;
2020/05/05 00:21:33;;;;;;;6.1;4.4;;;;;;;;;;;;;
2020/05/05 00:23:58;;;;;;;5.6;4.4;;;;;;;;;;;;;
2020/05/05 00:26:23;;;;;;;6;4.6;;;;;;;;;;;;;
2020/05/05 00:28:49;;;;;;;7.4;4.6;;;;;;;;;;;;;
2020/05/05 00:31:14;;;;;;;5.2;4.3;;;;;;;;;;;;;
2020/05/05 00:33:39;;;;;;;6.1;4.1;;;;;;;;;;;;;
2020/05/05 00:36:04;;;;;;;6;3.8;;;;;;;;;;;;;
2020/05/05 00:38:29;;;;;;;6.1;3.9;;;;;;;;;;;;;
2020/05/05 00:40:55;;;;;;;5;3.8;;;;;;;;;;;;;
2020/05/05 00:43:20;;;;;;;6.1;3.7;;;;;;;;;;;;;
2020/05/05 00:45:45;;;;;;;5;3.6;;;;;;;;;;;;;
2020/05/05 00:48:11;;;;;;;6.7;3.6;;;;;;;;;;;;;
2020/05/05 00:50:35;;;;;;;5.1;3.5;;;;;;;;;;;;;
2020/05/05 00:53:02;;;;;;;4.9;3.5;;;;;;;;;;;;;
2020/05/05 00:55:26;;;;;;;5.1;3.5;;;;;;;;;;;;;
2020/05/05 00:57:51;;;;;;;6.3;3.2;;;;;;;;;;;;;
2020/05/05 01:00:21;;;;;;;6.9;3.7;;;;;;;;;;;;;
2020/05/05 01:02:41;;;;;;;5.8;3.9;;;;;;;;;;;;;
2020/05/05 01:05:06;;;;;;;6.3;4.3;;;;;;;;;;;;;
2020/05/05 01:07:31;;;;;;;5.1;4.2;;;;;;;;;;;;;
2020/05/05 01:09:56;;;;;;;6;4.1;;;;;;;;;;;;;
2020/05/05 01:12:21;;;;;;;5.1;4.5;;;;;;;;;;;;;
2020/05/05 01:14:47;;;;;;;5.4;4.1;;;;;;;;;;;;;
2020/05/05 01:17:12;;;;;;;6.1;4.2;;;;;;;;;;;;;
2020/05/05 01:19:37;;;;;;;5.3;4.2;;;;;;;;;;;;;
2020/05/05 01:22:02;;;;;;;5.9;4.6;;;;;;;;;;;;;
2020/05/05 01:24:27;;;;;;;6.1;4.4;;;;;;;;;;;;;
2020/05/05 01:26:53;;;;;;;5.7;4.2;;;;;;;;;;;;;
2020/05/05 01:29:18;;;;;;;8.7;4;;;;;;;;;;;;;
2020/05/05 01:31:43;;;;;;;5.7;4.1;;;;;;;;;;;;;
2020/05/05 01:34:08;;;;;;;4.7;3.8;;;;;;;;;;;;;
2020/05/05 01:36:33;;;;;;;6.9;3.9;;;;;;;;;;;;;
2020/05/05 01:38:58;;;;;;;4.5;3.6;;;;;;;;;;;;;
2020/05/05 01:41:23;;;;;;;4.4;3.1;;;;;;;;;;;;;
2020/05/05 01:43:48;;;;;;;6.9;4;;;;;;;;;;;;;
2020/05/05 01:46:14;;;;;;;4.8;3.5;;;;;;;;;;;;;
2020/05/05 01:48:39;;;;;;;5;3.5;;;;;;;;;;;;;
2020/05/05 01:51:04;;;;;;;5.7;4;;;;;;;;;;;;;
2020/05/05 01:53:29;;;;;;;8.2;5.5;;;;;;;;;;;;;
2020/05/05 01:55:54;;;;;;;7.6;6.1;;;;;;;;;;;;;
2020/05/05 01:58:19;;;;;;;9.6;6.3;;;;;;;;;;;;;
2020/05/05 02:00:44;;;;;;;8.3;6.4;;;;;;;;;;;;;
2020/05/05 02:03:10;;;;;;;8.5;7;;;;;;;;;;;;;
2020/05/05 02:05:35;;;;;;;10;7.6;;;;;;;;;;;;;
2020/05/05 02:08:00;;;;;;;11.3;9.9;;;;;;;;;;;;;
2020/05/05 02:10:25;;;;;;;12.5;10.7;;;;;;;;;;;;;
2020/05/05 02:12:50;;;;;;;14.6;12.1;;;;;;;;;;;;;
2020/05/05 02:15:16;;;;;;;15.8;13.2;;;;;;;;;;;;;
2020/05/05 02:17:41;;;;;;;15.5;13.4;;;;;;;;;;;;;
2020/05/05 02:20:06;;;;;;;15.9;14.2;;;;;;;;;;;;;
2020/05/05 02:22:31;;;;;;;15.7;13.8;;;;;;;;;;;;;
2020/05/05 02:24:57;;;;;;;17;14.8;;;;;;;;;;;;;
2020/05/05 02:27:22;;;;;;;15.9;14.3;;;;;;;;;;;;;
2020/05/05 02:30:02;;;;;;;16.7;15;;;;;;;;;;;;;
2020/05/05 02:34:43;;;;;;;16.5;14.8;;;;;;;;;;;;;
2020/05/05 02:37:06;;;;;;;16.9;15.2;;;;;;;;;;;;;
2020/05/05 02:39:28;;;;;;;17.2;15.4;;;;;;;;;;;;;
2020/05/05 02:41:53;;;;;;;18.8;16.4;;;;;;;;;;;;;
2020/05/05 02:44:18;;;;;;;18.6;16.6;;;;;;;;;;;;;
2020/05/05 02:46:43;;;;;;;19.1;17;;;;;;;;;;;;;
2020/05/05 02:49:08;;;;;;;20.2;18.1;;;;;;;;;;;;;
2020/05/05 02:51:34;;;;;;;20.9;18.3;;;;;;;;;;;;;
2020/05/05 02:53:59;;;;;;;19.7;17.5;;;;;;;;;;;;;
2020/05/05 02:56:24;;;;;;;20.4;17.9;;;;;;;;;;;;;
2020/05/05 02:58:49;;;;;;;20.4;18.3;;;;;;;;;;;;;
2020/05/05 03:01:14;;;;;;;20.5;18.3;;;;;;;;;;;;;
2020/05/05 03:03:39;;;;;;;20.9;18.6;;;;;;;;;;;;;
2020/05/05 03:06:04;;;;;;;21.6;19.4;;;;;;;;;;;;;
2020/05/05 03:08:30;;;;;;;22.2;19.9;;;;;;;;;;;;;
2020/05/05 03:10:55;;;;;;;22.8;19.3;;;;;;;;;;;;;
2020/05/05 03:13:20;;;;;;;21.4;19.1;;;;;;;;;;;;;
2020/05/05 03:15:46;;;;;;;20.8;18.6;;;;;;;;;;;;;
2020/05/05 03:18:11;;;;;;;22;19.4;;;;;;;;;;;;;
2020/05/05 03:20:36;;;;;;;21.7;19.5;;;;;;;;;;;;;
2020/05/05 03:23:01;;;;;;;21.1;18.9;;;;;;;;;;;;;
2020/05/05 03:25:27;;;;;;;22.1;19.6;;;;;;;;;;;;;
2020/05/05 03:27:52;;;;;;;21.7;19.6;;;;;;;;;;;;;
2020/05/05 03:30:17;;;;;;;22.7;20.4;;;;;;;;;;;;;
2020/05/05 03:32:42;;;;;;;23.1;20.8;;;;;;;;;;;;;
2020/05/05 03:35:07;;;;;;;22.7;20.4;;;;;;;;;;;;;
2020/05/05 03:37:32;;;;;;;22.3;20;;;;;;;;;;;;;
2020/05/05 03:39:57;;;;;;;22.2;19.8;;;;;;;;;;;;;
2020/05/05 03:42:23;;;;;;;21.8;19.5;;;;;;;;;;;;;
2020/05/05 03:47:14;;;;;;;21.9;19.6;;;;;;;;;;;;;
2020/05/05 03:49:39;;;;;;;21.7;19.3;;;;;;;;;;;;;
2020/05/05 03:52:04;;;;;;;21.2;19.1;;;;;;;;;;;;;
2020/05/05 03:54:29;;;;;;;21.3;19.2;;;;;;;;;;;;;
2020/05/05 03:56:54;;;;;;;22.3;19.9;;;;;;;;;;;;;
2020/05/05 03:59:20;;;;;;;23.3;20;;;;;;;;;;;;;
2020/05/05 04:02:36;;;;;;;22.8;20.5;;;;;;;12.89;82.88281;935.8821;;;;
2020/05/05 04:05:03;;;;;;;21.9;19.5;;;;;;;12.98;82.67188;935.8641;;;;
2020/05/05 04:07:20;;;;;;;25.1;20.4;;;;;;;13;82.70996;935.8817;;;;
2020/05/05 04:09:45;;;;;;;22.7;20.2;;;;;;;13.07;82.27539;935.8817;;;;
2020/05/05 04:12:10;;;;;;;23;20.6;;;;;;;13.06;82.20508;935.8865;;;;
2020/05/05 04:14:35;;;;;;;21.9;19.7;;;;;;;13.02;82.10449;935.8907;;;;
2020/05/05 04:17:00;;;;;;;21.8;19.2;;;;;;;13.04;82.01563;935.8642;;;;
2020/05/05 04:19:26;;;;;;;21.8;19.2;;;;;;;13.05;81.96191;935.7786;;;;
2020/05/05 04:21:51;;;;;;;23.8;19.6;;;;;;;13.06;81.83594;935.8904;;;;
2020/05/05 04:24:16;;;;;;;23.6;20.6;;;;;;;12.89;82.35449;935.9444;;;;
2020/05/05 04:26:41;;;;;;;25.6;21.2;;;;;;;12.68;83.41797;935.9327;;;;
2020/05/05 04:29:06;;;;;;;23.6;21.1;;;;;;;12.62;83.50977;935.9329;;;;
2020/05/05 04:31:32;;;;;;;24.1;20.1;;;;;;;12.67;83.4375;936.051;;;;
2020/05/05 04:33:56;;;;;;;23.7;19.6;;;;;;;12.79;82.84375;936.053;;;;
2020/05/05 04:36:22;;;;;;;24.2;19.3;;;;;;;12.78;82.75977;936.0867;;;;
2020/05/05 04:38:47;;;;;;;24.3;18.9;;;;;;;12.86;82.39648;936.1227;;;;
2020/05/05 04:41:12;;;;;;;22.8;18.9;;;;;;;12.89;82.33105;936.0818;;;;
2020/05/05 04:43:37;;;;;;;23.1;18.8;;;;;;;12.83;82.44727;936.0804;;;;
2020/05/05 04:46:04;;;;;;;22.3;19.5;;;;;;;12.91;82.2793;936.0793;;;;
2020/05/05 04:48:29;;;;;;;21.1;18.9;;;;;;;12.93;82.19043;936.1289;;;;
2020/05/05 04:50:56;;;;;;;20.5;18.5;;;;;;;12.93;82.16797;936.1649;;;;
2020/05/05 04:53:21;;;;;;;21.8;19.5;;;;;;;12.83;82.48145;936.0684;;;;
2020/05/05 04:55:50;;;;;;;21.4;19.2;;;;;;;12.82;82.65234;936.1955;;;;
2020/05/05 04:58:15;;;;;;;22;19.6;;;;;;;12.71;82.98926;936.1683;;;;
2020/05/05 05:00:40;;;;;;;21.9;18.6;;;;;;;12.75;82.79883;936.1339;;;;
2020/05/05 05:03:05;;;;;;;21.3;19.1;;;;;;;12.8;82.70605;936.1953;;;;
2020/05/05 05:05:31;;;;;;;21.7;18.4;;;;;;;12.78;82.54004;936.1858;;;;
2020/05/05 05:07:55;;;;;;;21;18;;;;;;;12.75;82.82227;936.1259;;;;
2020/05/05 05:10:21;;;;;;;20.7;18.5;;;;;;;12.81;82.39844;936.101;;;;
2020/05/05 05:12:48;;;;;;;20;17.9;;;;;;;12.87;82.07715;936.0348;;;;
2020/05/05 05:15:13;;;;;;;20.3;18.1;;;;;;;12.67;82.77344;936.0678;;;;
2020/05/05 05:17:38;;;;;;;20.3;18.1;;;;;;;12.82;82.30957;936.1149;;;;
2020/05/05 05:20:03;;;;;;;21;17.5;;;;;;;12.67;82.86523;936.1445;;;;
2020/05/05 05:22:28;;;;;;;18.9;16.3;;;;;;;12.77;82.04688;936.1699;;;;
2020/05/05 05:24:53;;;;;;;18.2;16.2;;;;;;;12.83;81.45996;936.1595;;;;
2020/05/05 05:27:20;;;;;;;19.2;14.9;;;;;;;12.92;81.06543;936.2272;;;;
2020/05/05 05:29:45;;;;;;;17.4;15.6;;;;;;;12.95;80.7832;936.2431;;;;
2020/05/05 05:32:12;;;;;;;17.7;15.7;;;;;;;12.93;80.61816;936.2791;;;;
2020/05/05 05:34:37;;;;;;;19.9;16.1;;;;;;;12.92;80.66406;936.2839;;;;
2020/05/05 05:37:03;;;;;;;18.4;16.3;;;;;;;12.95;80.46191;936.2958;;;;
2020/05/05 05:39:28;;;;;;;17.5;15.7;;;;;;;12.97;80.30273;936.3142;;;;
2020/05/05 05:41:53;;;;;;;17.9;16;;;;;;;13.02;80.01465;936.3231;;;;
2020/05/05 05:44:18;;;;;;;18.9;16.1;;;;;;;13;80.08203;936.3549;;;;
2020/05/05 05:46:44;;;;;;;17.9;16;;;;;;;13.03;80.17676;936.3342;;;;
2020/05/05 05:49:14;;;;;;;17.4;15.5;;;;;;;13.04;80.20313;936.3293;;;;
2020/05/05 05:51:47;;;;;;;18.3;15.1;;;;;;;13.06;79.88477;936.3438;;;;
2020/05/05 05:54:00;;;;;;;19.2;14.6;;;;;;;13.11;79.66309;936.3812;;;;
2020/05/05 05:56:25;;;;;;;17;14.5;;;;;;;13.16;79.16602;936.3625;;;;
2020/05/05 05:58:50;;;;;;;18.3;15.6;;;;;;;13.1;79.77637;936.3884;;;;
2020/05/05 06:01:17;;;;;;;17.5;15.6;;;;;;;13.07;80.00293;936.3853;;;;
2020/05/05 06:03:41;;;;;;;17.8;15.9;;;;;;;13;80.63281;936.4556;;;;
2020/05/05 06:06:08;;;;;;;18.7;16.1;;;;;;;13.02;81.02539;936.4742;;;;
2020/05/05 06:08:45;;;;;;;18.4;16;;;;;;;13.02;81.27734;936.5366;;;;
2020/05/05 06:13:27;;;;;;;17.1;15;;;;;;;13.01;81.55176;936.5162;;;;
2020/05/05 06:15:51;;;;;;;17.7;15.3;;;;;;;13.04;81.5127;936.5508;;;;
2020/05/05 06:18:16;;;;;;;20.3;15.2;;;;;;;13.12;80.43457;936.5627;;;;
2020/05/05 06:20:43;;;;;;;15.5;13.9;;;;;;;12.95;80.27832;936.502;;;;
2020/05/05 06:23:08;;;;;;;15.7;14.1;;;;;;;12.86;80.8584;936.5023;;;;
2020/05/05 06:25:34;;;;;;;16.5;13.9;;;;;;;12.99;81.05469;936.4651;;;;
2020/05/05 06:27:59;;;;;;;20.1;14.4;;;;;;;13.07;80.5293;936.47;;;;
2020/05/05 06:30:26;;;;;;;18.7;14.4;;;;;;;13.12;80.66602;936.5545;;;;
2020/05/05 06:32:51;;;;;;;17.5;14;;;;;;;13.23;80.18066;936.5164;;;;
2020/05/05 06:35:17;;;;;;;15.5;13.4;;;;;;;13.04;80.30664;936.4558;;;;
2020/05/05 06:37:42;;;;;;;17.4;14;;;;;;;13.1;80.37598;936.4451;;;;
2020/05/05 06:40:07;;;;;;;16.5;13.5;;;;;;;13.19;80.7373;936.4579;;;;
2020/05/05 06:42:32;;;;;;;15.7;13.7;;;;;;;13.17;80.09863;936.4185;;;;
2020/05/05 06:44:57;;;;;;;14.9;13.4;;;;;;;12.93;81.16895;936.4645;;;;
2020/05/05 06:47:22;;;;;;;16;14;;;;;;;12.82;81.96484;936.4249;;;;
2020/05/05 06:49:47;;;;;;;16.4;14.6;;;;;;;12.97;81.86426;936.4405;;;;
2020/05/05 06:52:12;;;;;;;15;13.1;;;;;;;13.11;81.21387;936.4387;;;;
2020/05/05 06:54:38;;;;;;;16.5;13.2;;;;;;;13.1;80.84668;936.4027;;;;
2020/05/05 06:57:03;;;;;;;15.2;12.9;;;;;;;13.16;80.63867;936.3265;;;;
2020/05/05 06:59:30;;;;;;;14.4;12.9;;;;;;;13.27;80.03613;936.4116;;;;
2020/05/05 07:01:55;;;;;;;16.9;13.8;;;;;;;13.31;80.02148;936.3491;;;;
2020/05/05 07:04:20;;;;;;;15.6;13.9;;;;;;;13.29;80.01855;936.4043;;;;
2020/05/05 07:06:45;;;;;;;17;14.9;;;;;;;13.34;79.93652;936.4256;;;;
2020/05/05 07:09:10;;;;;;;16.8;15.2;;;;;;;13.35;79.7998;936.4;;;;
2020/05/05 07:11:35;;;;;;;17.3;15.6;;;;;;;13.41;79.93848;936.3293;;;;
2020/05/05 07:14:01;;;;;;;17.8;16;;;;;;;13.5;79.67676;936.3412;;;;
2020/05/05 07:16:26;;;;;;;16.7;14.7;;;;;;;13.57;79.32227;936.3425;;;;
2020/05/05 07:18:51;;;;;;;17.5;15.7;;;;;;;13.57;79.5293;936.4489;;;;
2020/05/05 07:21:16;;;;;;;18.2;16;;;;;;;13.49;79.57227;936.4325;;;;
2020/05/05 07:23:41;;;;;;;19.1;17.1;;;;;;;13.51;80.16309;936.4027;;;;
2020/05/05 07:26:07;;;;;;;19.7;17.1;;;;;;;13.44;80.78223;936.348;;;;
2020/05/05 07:28:32;;;;;;;17.7;15.9;;;;;;;13.5;80.13867;936.33;;;;
2020/05/05 07:30:59;;;;;;;18.1;16.2;;;;;;;13.57;80.42578;936.3153;;;;
2020/05/05 07:33:24;;;;;;;17.7;16;;;;;;;13.63;80.03711;936.3312;;;;
2020/05/05 07:35:50;;;;;;;18.1;16.2;;;;;;;13.59;80.37207;936.3552;;;;
2020/05/05 07:38:15;;;;;;;18;16.1;;;;;;;13.64;79.59961;936.4113;;;;
2020/05/05 07:40:40;;;;;;;18.1;16.3;;;;;;;13.64;79.02539;936.4369;;;;
2020/05/05 07:43:06;;;;;;;17.9;15.9;;;;;;;13.67;79.2373;936.5383;;;;
2020/05/05 07:45:31;;;;;;;19;16.5;;;;;;;13.7;79.2666;936.5477;;;;
2020/05/05 07:47:56;;;;;;;19.5;16.8;;;;;;;13.67;78.74219;936.5583;;;;
2020/05/05 07:50:32;;;;;;;19.6;17.5;;;;;;;13.61;78.77832;936.4486;;;;
2020/05/05 07:52:58;;;;;;;20.2;18;;;;;;;13.62;79.19434;936.5449;;;;
2020/05/05 07:55:23;;;;;;;21.4;19.1;;;;;;;13.66;78.90137;936.5775;;;;
2020/05/05 07:57:48;;;;;;;21.9;19.6;;;;;;;13.65;79.02539;936.5544;;;;
2020/05/05 08:00:18;;;;;;;22.5;19.4;;;;;;;13.68;79.3418;936.4422;;;;
2020/05/05 08:02:45;;;;;;;23.5;20.8;;;;;;;13.57;79.75977;936.3401;;;;
2020/05/05 08:05:10;;;;;;;22.5;20.1;;;;;;;13.59;79.69336;936.3951;;;;
2020/05/05 08:07:36;;;;;;;23.2;19.9;;;;;;;13.64;79.56543;936.3744;;;;
2020/05/05 08:10:01;;;;;;;22.3;19.8;;;;;;;13.69;79.78223;936.2285;;;;
2020/05/05 08:12:26;;;;;;;22.8;19;;;;;;;13.73;78.86914;936.2442;;;;
2020/05/05 08:14:52;;;;;;;22.2;19.9;;;;;;;13.45;80.04785;936.3591;;;;
2020/05/05 08:17:17;;;;;;;23.6;21;;;;;;;13.53;80.02832;936.4147;;;;
2020/05/05 08:20:00;;;;;;;23.6;21;;;;;;;13.46;80.42871;936.4534;;;;
2020/05/05 08:22:08;;;;;;;24.4;21;;;;;;;13.55;80.52637;936.5234;;;;
2020/05/05 08:24:33;;;;;;;22.6;20.1;;;;;;;13.64;79.42773;936.2824;;;;
2020/05/05 08:26:58;;;;;;;22.5;20.1;;;;;;;13.67;79.375;936.3167;;;;
2020/05/05 08:29:23;;;;;;;22;19.6;;;;;;;13.38;80.27832;936.367;;;;
2020/05/05 08:31:57;;;;;;;22.2;19.8;;;;;;;13.55;79.84766;936.4498;;;;
2020/05/05 08:39:06;;;;;;;22.1;19.2;;;;;;;13.29;80.5127;936.4554;;;;
2020/05/05 08:41:32;;;;;;;23.7;20.8;;;;;;;13.27;81.24414;936.3644;;;;
2020/05/05 08:43:59;;;;;;;24.8;21.2;;;;;;;13.29;80.77637;936.3226;;;;
2020/05/05 08:46:23;;;;;;;25.5;20.9;;;;;;;13.38;80.49414;936.3423;;;;
2020/05/05 08:49:02;;;;;;;23.7;21.1;;;;;;;13.41;80.21387;936.3813;;;;
2020/05/05 08:51:16;;;;;;;23.9;20.8;;;;;;;13.46;80.17578;936.3663;;;;
2020/05/05 08:57:50;;;;;;;24.3;21.7;;;;;;;13.07;81.15137;936.5867;;;;
2020/05/05 09:00:15;;;;;;;25.6;21.9;;;;;;;12.91;81.98242;936.666;;;;
2020/05/05 09:03:02;;;;;;;25.9;20.3;;;;;;;12.79;81.71777;936.5948;;;;
2020/05/05 09:05:08;;;;;;;24.5;19.2;;;;;;;12.57;82.22754;936.5972;;;;
2020/05/05 09:07:33;;;;;;;23.8;18.2;;;;;;;12.46;82.26367;936.622;;;;
2020/05/05 09:09:58;;;;;;;22.6;16.8;;;;;;;12.52;82.33203;936.6891;;;;
2020/05/05 09:12:26;;;;;;;21;15.2;;;;;;;12.59;81.81738;936.6675;;;;
2020/05/05 09:14:49;;;;;;;16.6;13.1;;;;;;;12.44;81.60547;936.7906;;;;
2020/05/05 09:17:14;;;;;;;15.6;11.9;;;;;;;12.43;81.74316;936.9;;;;
2020/05/05 09:19:39;;;;;;;14.4;11;;;;;;;12.38;81.51367;936.8486;;;;
2020/05/05 09:22:04;;;;;;;15.5;10.5;;;;;;;12.42;81.26953;936.88;;;;
2020/05/05 09:24:31;;;;;;;15.9;10.8;;;;;;;12.55;81.43066;936.8864;;;;
2020/05/05 09:26:56;;;;;;;13.2;9.8;;;;;;;12.49;81.12207;936.8474;;;;
2020/05/05 09:29:21;;;;;;;14.8;9.4;;;;;;;12.51;81.36621;936.8656;;;;
2020/05/05 09:31:46;;;;;;;12.4;9;;;;;;;12.64;81.11621;936.7292;;;;
2020/05/05 09:34:11;;;;;;;12.5;9.2;;;;;;;12.78;80.68262;936.7227;;;;
2020/05/05 09:36:36;;;;;;;12.4;8.8;;;;;;;12.7;80.33496;936.7924;;;;
2020/05/05 09:39:02;;;;;;;12.6;9.7;;;;;;;12.56;80.84766;936.8033;;;;
2020/05/05 09:41:27;;;;;;;14.2;11;;;;;;;12.51;81.34375;936.9679;;;;
2020/05/05 09:43:52;;;;;;;12.3;9.2;;;;;;;12.58;81.16211;936.9647;;;;
2020/05/05 09:46:17;;;;;;;11.7;9.1;;;;;;;12.44;81.58398;936.9791;;;;
2020/05/05 09:48:42;;;;;;;10.9;8.3;;;;;;;12.44;81.21582;937.0317;;;;
2020/05/05 09:51:07;;;;;;;10.6;8.3;;;;;;;12.45;81.05859;937.0278;;;;
2020/05/05 09:53:32;;;;;;;11.6;8.5;;;;;;;12.33;81.64355;936.9244;;;;
2020/05/05 09:55:57;;;;;;;10.3;6.2;;;;;;;12.13;81.74121;936.8713;;;;
2020/05/05 09:58:22;;;;;;;8.2;6.2;;;;;;;12.07;82.04004;936.8544;;;;
2020/05/05 10:00:48;;;;;;;13.4;5.5;;;;;;;12.13;82.17578;936.8298;;;;
2020/05/05 10:03:13;;;;;;;7.9;5.4;;;;;;;11.96;82.67285;936.8397;;;;
2020/05/05 10:05:38;;;;;;;8.3;5.3;;;;;;;12.07;83.05957;936.8042;;;;
2020/05/05 10:08:03;;;;;;;7.9;5.6;;;;;;;12.16;82.7334;936.9312;;;;
2020/05/05 10:10:28;;;;;;;6.9;6.1;;;;;;;12.26;82.13281;936.8965;;;;
2020/05/05 10:12:53;;;;;;;7.5;5.9;;;;;;;12.28;81.1748;936.9947;;;;
2020/05/05 10:15:18;;;;;;;7.6;5.9;;;;;;;12.3;81.20117;936.9603;;;;
2020/05/05 10:17:44;;;;;;;8.5;6.6;;;;;;;12.14;81.8584;936.9408;;;;
2020/05/05 10:20:09;;;;;;;9.8;6.8;;;;;;;12.27;81.3916;936.9739;;;;
2020/05/05 10:22:34;;;;;;;7.6;6.6;;;;;;;12.32;81.19336;936.9292;;;;
2020/05/05 10:24:59;;;;;;;7.6;6.5;;;;;;;12.29;80.5332;937.0193;;;;
2020/05/05 10:27:24;;;;;;;7.6;6.3;;;;;;;12.28;80.53125;936.9891;;;;
2020/05/05 10:32:14;;;;;;;8.8;6.3;;;;;;;12.14;81.82422;937.0206;;;;
2020/05/05 10:34:40;;;;;;;7.9;6.2;;;;;;;12.23;80.6377;936.9714;;;;
2020/05/05 10:37:05;;;;;;;10.9;6.2;;;;;;;12.21;80.0498;937.0073;;;;
2020/05/05 10:39:30;;;;;;;11;6.3;;;;;;;12.12;80.23926;937.0341;;;;
2020/05/05 10:41:55;;;;;;;8.4;6.9;;;;;;;12.19;80.65234;937.0278;;;;
2020/05/05 10:44:20;;;;;;;10.4;6.7;;;;;;;12.18;80.91602;937.0869;;;;
2020/05/05 10:46:45;;;;;;;8;6.2;;;;;;;12.14;80.70117;937.007;;;;
2020/05/05 10:49:10;;;;;;;7.2;5.7;;;;;;;12.12;81.04199;936.9775;;;;
2020/05/05 10:51:35;;;;;;;7.3;5.9;;;;;;;12.25;80.84766;937.0402;;;;
2020/05/05 10:54:01;;;;;;;6.5;5.3;;;;;;;12.37;79.75684;937.0626;;;;
2020/05/05 10:56:28;;;;;;;6.4;5.3;;;;;;;12.44;79.30176;937.0717;;;;
2020/05/05 10:58:53;;;;;;;8.8;5.5;;;;;;;12.43;78.96582;937.0685;;;;
2020/05/05 11:01:20;;;;;;;6.5;5.3;;;;;;;12.54;79.28418;937.0037;;;;
2020/05/05 11:03:45;;;;;;;8;4.8;;;;;;;12.57;78.70508;937.1068;;;;
2020/05/05 11:06:10;;;;;;;5.9;4.9;;;;;;;12.55;79.75586;937.0916;;;;
2020/05/05 11:08:36;;;;;;;8.9;5.7;;;;;;;12.52;79.79688;937.1763;;;;
2020/05/05 11:11:02;;;;;;;8.3;6;;;;;;;12.59;79.09863;937.2874;;;;
2020/05/05 11:13:27;;;;;;;10;6.6;;;;;;;12.15;80.53125;937.3574;;;;
2020/05/05 11:15:52;;;;;;;8.7;6.4;;;;;;;12.35;80.23535;937.3276;;;;
2020/05/05 11:18:17;;;;;;;8.2;6.5;;;;;;;12.38;79.68066;937.3572;;;;
2020/05/05 11:20:42;;;;;;;9.5;7;;;;;;;12.38;79.62305;937.3772;;;;
2020/05/05 11:23:07;;;;;;;8.4;6.8;;;;;;;12.38;79.57715;937.2598;;;;
2020/05/05 11:25:35;;;;;;;8.8;6.4;;;;;;;12.28;79.7998;937.3923;;;;
2020/05/05 11:28:01;;;;;;;7.8;6.5;;;;;;;12.21;79.60254;937.2545;;;;
2020/05/05 11:30:26;;;;;;;9.2;7.1;;;;;;;12.22;79.83203;937.4272;;;;
2020/05/05 11:32:51;;;;;;;10.4;7.5;;;;;;;12.23;80.30566;937.3395;;;;
2020/05/05 11:35:16;;;;;;;9.7;7.5;;;;;;;12.34;79.80957;937.3644;;;;
2020/05/05 11:37:44;;;;;;;8.7;7.1;;;;;;;12.33;79.58984;937.3013;;;;
2020/05/05 11:40:09;;;;;;;10.6;7.4;;;;;;;12.36;79.66406;937.3237;;;;
2020/05/05 11:42:38;;;;;;;8.9;6.6;;;;;;;12.28;79.29492;937.3667;;;;
2020/05/05 11:45:03;;;;;;;7.9;6.6;;;;;;;12.31;79.64453;937.3412;;;;
2020/05/05 11:47:31;;;;;;;8;6.2;;;;;;;12.33;79.08594;937.3404;;;;
2020/05/05 11:49:56;;;;;;;9.6;6.6;;;;;;;12.29;79.9834;937.3883;;;;
2020/05/05 11:52:21;;;;;;;7.9;6.2;;;;;;;12;80.61719;937.4302;;;;
2020/05/05 11:54:47;;;;;;;8.1;6.7;;;;;;;12.09;80.41602;937.4219;;;;
2020/05/05 11:57:13;;;;;;;9.1;6.1;;;;;;;12.17;79.96094;937.3535;;;;
2020/05/05 11:59:38;;;;;;;8.5;6.1;;;;;;;12.28;79.85645;937.3484;;;;
2020/05/05 12:02:03;;;;;;;8.8;6;;;;;;;12.31;79.62109;937.4219;;;;
2020/05/05 12:04:28;;;;;;;8.5;6.1;;;;;;;12.35;79.24902;937.4275;;;;
2020/05/05 12:06:54;;;;;;;8.7;6.5;;;;;;;12.41;78.7666;937.4819;;;;
2020/05/05 12:09:20;;;;;;;12.5;7;;;;;;;12.37;80.6748;937.4459;;;;
2020/05/05 12:11:46;;;;;;;9.2;6.8;;;;;;;12.52;79.25781;937.4071;;;;
2020/05/05 12:14:13;;;;;;;8.8;6;;;;;;;12.43;79.20508;937.4598;;;;
2020/05/05 12:16:38;;;;;;;7.7;6.2;;;;;;;12.37;79.18359;937.4978;;;;
2020/05/05 12:21:11;;;;;;;9.3;7.3;;;;;;;12.27;80.3584;937.5231;;;;
2020/05/05 12:21:33;;;;;;;9.4;7.1;;;;;;;12.4;79.86719;937.5353;;;;
2020/05/05 12:24:40;;;;;;;10.5;7.7;;;;;;;12.18;80.11328;937.47;;;;
2020/05/05 12:28:45;;;;;;;11.6;7.5;;;;;;;12.23;80.09863;937.5519;;;;
2020/05/05 12:31:11;;;;;;;9.1;7.3;;;;;;;12.21;78.93848;937.4911;;;;
2020/05/05 12:33:36;;;;;;;10.2;7.6;;;;;;;12.25;80.34277;937.4936;;;;
2020/05/05 12:36:01;;;;;;;10.9;7.7;;;;;;;12.42;79.18262;937.4989;;;;
2020/05/05 12:38:26;;;;;;;10.5;7.9;;;;;;;12.47;79.00684;937.6426;;;;
2020/05/05 12:40:53;;;;;;;11.4;8.4;;;;;;;12.64;79.68066;937.6855;;;;
2020/05/05 12:43:18;;;;;;;9.8;7.6;;;;;;;12.76;77.59082;937.6983;;;;
2020/05/05 12:45:47;;;;;;;12.8;8.3;;;;;;;12.67;78.01172;937.6791;;;;
2020/05/05 12:48:12;;;;;;;10.1;7.9;;;;;;;12.66;77.84961;937.7925;;;;
2020/05/05 12:50:39;;;;;;;10.5;7.9;;;;;;;12.7;77.87891;937.8525;;;;
2020/05/05 12:53:05;;;;;;;10.2;7.5;;;;;;;12.42;78.34473;937.8127;;;;
2020/05/05 12:55:33;;;;;;;10.8;7.6;;;;;;;12.51;78.44141;937.8089;;;;
2020/05/05 12:57:58;;;;;;;9.9;7.5;;;;;;;12.58;77.49121;937.8792;;;;
2020/05/05 13:00:23;;;;;;;10.9;7.8;;;;;;;12.52;77.21582;937.7977;;;;
2020/05/05 13:02:53;;;;;;;9.5;8.1;;;;;;;12.41;77.4375;937.7925;;;;
2020/05/05 13:05:18;;;;;;;10.7;7.9;;;;;;;12.2;78.09961;937.7008;;;;
2020/05/05 13:07:43;;;;;;;10.1;7.5;;;;;;;12.19;78.42871;937.7574;;;;
2020/05/05 13:10:08;;;;;;;10.2;8.4;;;;;;;12.19;78.68262;937.6705;;;;
2020/05/05 13:12:34;;;;;;;12.3;8.6;;;;;;;12.31;77.99316;937.6781;;;;
2020/05/05 13:15:01;;;;;;;12.2;8.3;;;;;;;12.35;78.25195;937.7349;;;;
2020/05/05 13:17:26;;;;;;;10.5;7.8;;;;;;;11.98;79.06738;937.7406;;;;
2020/05/05 13:19:51;;;;;;;8.7;7.5;;;;;;;12.17;79.09082;937.7206;;;;
2020/05/05 13:22:16;;;;;;;9.2;7.3;;;;;;;12.24;78.81738;937.7252;;;;
2020/05/05 13:24:44;;;;;;;10.2;7.6;;;;;;;12.05;78.87207;937.6996;;;;
2020/05/05 13:27:09;;;;;;;10.9;7.8;;;;;;;12.26;78.54688;937.6701;;;;
2020/05/05 13:29:35;;;;;;;11.3;8.1;;;;;;;12.26;78.82031;937.7308;;;;
2020/05/05 13:32:00;;;;;;;11.1;8.2;;;;;;;12.28;79.00879;937.6589;;;;
2020/05/05 13:34:28;;;;;;;9.1;7.7;;;;;;;12.41;78.79102;937.6064;;;;
2020/05/05 13:36:53;;;;;;;9.1;7.4;;;;;;;12.46;77.48145;937.5212;;;;
2020/05/05 13:39:18;;;;;;;9;7.7;;;;;;;12.49;77.6123;937.5469;;;;
2020/05/05 13:41:43;;;;;;;10.2;8.2;;;;;;;12.68;77.58887;937.4465;;;;
2020/05/05 13:44:08;;;;;;;8.7;7;;;;;;;12.86;76.875;937.4092;;;;
2020/05/05 13:46:33;;;;;;;9.3;7.6;;;;;;;12.95;76.2373;937.4012;;;;
2020/05/05 13:48:58;;;;;;;9;7.6;;;;;;;13.07;75.86719;937.5005;;;;
2020/05/05 13:51:23;;;;;;;8.8;7.3;;;;;;;13.07;75.53418;937.4653;;;;
2020/05/05 13:53:49;;;;;;;8.6;7.6;;;;;;;13.1;75.34473;937.4612;;;;
2020/05/05 13:56:14;;;;;;;9.5;7.9;;;;;;;13.09;75.66309;937.5172;;;;
2020/05/05 13:58:39;;;;;;;8.5;7.5;;;;;;;13.09;75.89258;937.5867;;;;
2020/05/05 14:01:04;;;;;;;8;7.2;;;;;;;13.17;76.125;937.5898;;;;
2020/05/05 14:03:29;;;;;;;8.4;7.5;;;;;;;13.11;76.11426;937.5051;;;;
2020/05/05 14:05:55;;;;;;;7.5;6.6;;;;;;;13.05;76.16211;937.5908;;;;
2020/05/05 14:08:20;;;;;;;7.8;6.4;;;;;;;12.91;76.35352;937.6481;;;;
2020/05/05 14:13:10;;;;;;;9.2;7.6;;;;;;;12.96;77.69531;937.5347;;;;
2020/05/05 14:15:42;;;;;;;8.7;7.4;;;;;;;13.03;76.92676;937.5101;;;;
2020/05/05 14:20:06;;;;;;;8;7.1;;;;;;;13.15;76.75391;937.5522;;;;
2020/05/05 14:25:10;;;;;;;8.4;7.5;;;;;;;13.07;76.2002;937.506;;;;
2020/05/05 14:29:19;;;;;;;9.1;8.1;;;;;;;12.8;76.86426;937.5369;;;;
2020/05/05 14:30:04;;;;;;;9.6;7.9;;;;;;;12.83;76.44434;937.5699;;;;
2020/05/05 14:32:42;;;;;;;8.5;7.6;;;;;;;12.83;76.81152;937.5363;;;;
2020/05/05 14:34:46;;;;;;;8.4;7.4;;;;;;;12.73;76.92188;937.5936;;;;
2020/05/05 14:42:09;;;;;;;9.5;8.2;;;;;;;12.43;77.62598;937.6635;;;;
2020/05/05 14:44:37;;;;;;;9.3;8.4;;;;;;;12.43;77.60254;937.5851;;;;
2020/05/05 14:47:13;;;;;;;10.1;9;;;;;;;12.29;77.9668;937.6462;;;;
2020/05/05 14:51:46;;;;;;;11.7;8.4;;;;;;;12.36;78.36816;937.5975;;;;
2020/05/05 14:54:11;;;;;;;8.2;7.3;;;;;;;12.38;77.67188;937.6534;;;;
2020/05/05 14:56:36;;;;;;;10.1;7.9;;;;;;;12.36;77.5791;937.6239;;;;
2020/05/05 14:59:02;;;;;;;8.8;7.3;;;;;;;12.49;77.40625;937.6076;;;;
2020/05/05 15:01:30;;;;;;;9.5;8.1;;;;;;;12.58;76.9043;937.5494;;;;
2020/05/05 15:03:52;;;;;;;8.7;7.8;;;;;;;12.63;77.15527;937.6599;;;;
2020/05/05 15:06:18;;;;;;;9.2;7.9;;;;;;;12.67;76.97754;937.735;;;;
2020/05/05 15:08:43;;;;;;;8.9;8;;;;;;;12.7;77.09863;937.7494;;;;
2020/05/05 15:11:08;;;;;;;8.7;7.8;;;;;;;12.7;75.99707;937.7701;;;;
2020/05/05 15:13:39;;;;;;;9.6;8.2;;;;;;;12.48;76.63574;937.8264;;;;
2020/05/05 15:16:05;;;;;;;10.2;8.5;;;;;;;12.42;77.01465;937.7976;;;;
2020/05/05 15:18:30;;;;;;;9.6;8.1;;;;;;;12.22;77.04688;937.7011;;;;
2020/05/05 15:20:56;;;;;;;9.6;8.3;;;;;;;12.25;77.42969;937.6948;;;;
2020/05/05 15:23:21;;;;;;;9.4;8.2;;;;;;;12.18;77.55762;937.6752;;;;
2020/05/05 15:25:46;;;;;;;10.5;8.7;;;;;;;12.22;77.98633;937.7322;;;;
2020/05/05 15:28:13;;;;;;;10.4;9;;;;;;;12.17;78.19629;937.6951;;;;
2020/05/05 15:30:38;;;;;;;9.7;8.7;;;;;;;12.15;78.30762;937.6663;;;;
2020/05/05 15:33:04;;;;;;;9.3;8.3;;;;;;;12.11;78.49609;937.7006;;;;
2020/05/05 15:35:29;;;;;;;8.6;7.7;;;;;;;11.96;79.0293;937.7294;;;;
2020/05/05 15:37:55;;;;;;;9.6;8.1;;;;;;;11.95;79.42676;937.7525;;;;
2020/05/05 15:40:20;;;;;;;10.2;8.5;;;;;;;11.87;79.53027;937.682;;;;
2020/05/05 15:42:45;;;;;;;14.8;8.4;;;;;;;11.8;79.70996;937.7524;;;;
2020/05/05 15:45:10;;;;;;;13.4;11.1;;;;;;;11.55;80.68359;937.7692;;;;
2020/05/05 15:47:35;;;;;;;11.5;10.3;;;;;;;11.54;80.77344;937.699;;;;
2020/05/05 15:50:00;;;;;;;11.2;9.3;;;;;;;11.51;80.59473;937.7307;;;;